Lansdowne House Airport
CYLH : now visible

Airfield :











YOU CAN JOIN US ON...

 
LOGIN :

Register | Disclaimer

   EN    FR    IT 

 









Legend :    VFR   Marginal VFR   IFR   Intensive IFR   Very Intensive IFR
Visi :
Ceiling :
>= 8 km
>= 3000ft
5 to 8 km
1000 to 3000 ft
1500m to 5 km
500 to 1000 ft
800 to 1500m
200 to 500 ft
< 800m
< 200 ft
Symbols :   Thunderstorms  Fog  Heavy snow  Heavy precipitations  Wind > 20 kt






- Airport Elevation : 834 ft
- IATA code : YLH


CYLH - Lansdowne House

CURRENT METAR :
  • 251810Z AUTO 08002KT 9SM -SN FEW047 OVC095 M18/M21 A3020 RMK SLP259

EXPIRED METARs :
  • 251800Z AUTO 00000KT 9SM OVC095 M18/M21 A3021 RMK SLP261
  • 251741Z AUTO VRB02KT 9SM OVC095 M18/M21 A3020 RMK SLP260
  • 251728Z AUTO 06003KT 7SM -SN OVC095 M18/M21 A3020 RMK SLP258
  • 251719Z AUTO 06002KT 5SM -SN OVC095 M18/M21 A3020 RMK SLP258
  • 251700Z AUTO 08002KT 9SM -SN FEW030 OVC095 M19/M22 A3020 RMK SLP257
  • 251650Z AUTO VRB02KT 6SM -SN BKN034 BKN042 OVC095 M19/M22 A3020 RMK SLP257
  • 251636Z AUTO 00000KT 3SM -SN BKN036 OVC090 M19/M22 A3020 RMK SLP257
  • 251601Z AUTO 00000KT 3SM -SN OVC039 M20/M22 A3017 RMK SLP252
  • 251552Z AUTO VRB02KT 2 1/2SM -SN BKN041 BKN050 OVC090 M20/M22 A3017 RMK VIS VRB 1 3/4-3 SLP251

TAF N/A
CZWG FIR / North America



MET'MAP, your aeronautical weather chart ! - Copyright ORBIFLY December 2007 - Disclaimer

ORBIFLY MET'MAP TEAM :

Programming & Development : Alexandra Zaïnal
Concept & original design : Baudouin d'Aumeries
Assistance for programming : Marc-Olivier Méhu
Technical & hardware support : Manuel Goepfert

Contact : metmap@orbifly.com




SOURCES & CREDITS :

   NOAA       Earth
Advisory